sensor_id;sensor_type;location;lat;lon;timestamp;pressure;altitude;pressure_sealevel;temperature;humidity
55460;BME280;41326;45.302;-122.946;2023-02-23T00:00:54;99409.20;;;17.59;52.49
55460;BME280;41326;45.302;-122.946;2023-02-23T00:03:25;99412.04;;;17.53;52.64
55460;BME280;41326;45.302;-122.946;2023-02-23T00:05:55;99408.25;;;17.54;52.59
55460;BME280;41326;45.302;-122.946;2023-02-23T00:08:25;99410.80;;;17.75;52.36
55460;BME280;41326;45.302;-122.946;2023-02-23T00:10:58;99410.52;;;17.83;52.17
55460;BME280;41326;45.302;-122.946;2023-02-23T00:13:27;99412.13;;;17.80;51.99
55460;BME280;41326;45.302;-122.946;2023-02-23T00:15:57;99410.29;;;17.71;51.83
55460;BME280;41326;45.302;-122.946;2023-02-23T00:18:27;99404.53;;;17.62;52.28
55460;BME280;41326;45.302;-122.946;2023-02-23T00:21:01;99403.43;;;17.55;52.77
55460;BME280;41326;45.302;-122.946;2023-02-23T00:23:28;99407.67;;;17.78;52.42
55460;BME280;41326;45.302;-122.946;2023-02-23T00:25:58;99405.88;;;17.83;53.31
55460;BME280;41326;45.302;-122.946;2023-02-23T00:28:29;99402.67;;;17.79;53.57
55460;BME280;41326;45.302;-122.946;2023-02-23T00:31:00;99402.55;;;17.72;54.23
55460;BME280;41326;45.302;-122.946;2023-02-23T00:33:30;99402.44;;;17.70;54.43
55460;BME280;41326;45.302;-122.946;2023-02-23T00:36:02;99395.93;;;17.67;55.80
55460;BME280;41326;45.302;-122.946;2023-02-23T00:38:30;99395.05;;;17.68;55.38
55460;BME280;41326;45.302;-122.946;2023-02-23T00:41:03;99394.87;;;17.65;54.73
55460;BME280;41326;45.302;-122.946;2023-02-23T00:43:32;99397.94;;;17.78;53.97
55460;BME280;41326;45.302;-122.946;2023-02-23T00:46:02;99399.56;;;17.86;53.75
55460;BME280;41326;45.302;-122.946;2023-02-23T00:48:32;99401.59;;;18.02;54.53
55460;BME280;41326;45.302;-122.946;2023-02-23T00:51:04;99397.20;;;18.19;55.23
55460;BME280;41326;45.302;-122.946;2023-02-23T00:53:32;99398.45;;;18.14;57.35
55460;BME280;41326;45.302;-122.946;2023-02-23T00:56:03;99398.96;;;18.08;58.85
55460;BME280;41326;45.302;-122.946;2023-02-23T00:58:35;99390.80;;;18.13;59.40
55460;BME280;41326;45.302;-122.946;2023-02-23T01:01:04;99393.45;;;18.33;58.87
55460;BME280;41326;45.302;-122.946;2023-02-23T01:03:34;99386.25;;;18.45;58.64
55460;BME280;41326;45.302;-122.946;2023-02-23T01:06:05;99386.69;;;18.61;57.41
55460;BME280;41326;45.302;-122.946;2023-02-23T01:08:36;99384.09;;;18.56;56.68
55460;BME280;41326;45.302;-122.946;2023-02-23T01:11:12;99383.69;;;18.45;56.77
55460;BME280;41326;45.302;-122.946;2023-02-23T01:13:37;99385.99;;;18.45;55.51
55460;BME280;41326;45.302;-122.946;2023-02-23T01:16:10;99392.73;;;18.54;55.02
55460;BME280;41326;45.302;-122.946;2023-02-23T01:18:38;99391.37;;;18.65;54.43
55460;BME280;41326;45.302;-122.946;2023-02-23T01:21:13;99390.55;;;18.84;53.95
55460;BME280;41326;45.302;-122.946;2023-02-23T01:23:37;99391.63;;;18.82;54.96
55460;BME280;41326;45.302;-122.946;2023-02-23T01:28:37;99394.22;;;18.60;57.87
55460;BME280;41326;45.302;-122.946;2023-02-23T01:31:12;99399.08;;;18.65;58.19
55460;BME280;41326;45.302;-122.946;2023-02-23T01:33:38;99394.32;;;18.84;57.57
55460;BME280;41326;45.302;-122.946;2023-02-23T01:36:09;99391.79;;;18.96;56.97
55460;BME280;41326;45.302;-122.946;2023-02-23T01:38:39;99391.11;;;19.00;56.93
55460;BME280;41326;45.302;-122.946;2023-02-23T01:41:10;99387.47;;;19.02;56.87
55460;BME280;41326;45.302;-122.946;2023-02-23T01:46:11;99397.49;;;18.87;56.95
55460;BME280;41326;45.302;-122.946;2023-02-23T01:48:42;99401.62;;;18.79;57.17
55460;BME280;41326;45.302;-122.946;2023-02-23T01:51:12;99401.51;;;18.71;57.34
55460;BME280;41326;45.302;-122.946;2023-02-23T01:53:43;99406.59;;;18.66;57.23
55460;BME280;41326;45.302;-122.946;2023-02-23T01:56:13;99410.50;;;18.67;56.67
55460;BME280;41326;45.302;-122.946;2023-02-23T01:58:44;99411.43;;;18.78;55.96
55460;BME280;41326;45.302;-122.946;2023-02-23T02:01:12;99415.66;;;18.90;55.35
55460;BME280;41326;45.302;-122.946;2023-02-23T02:03:45;99413.10;;;18.95;55.13
55460;BME280;41326;45.302;-122.946;2023-02-23T02:06:15;99415.91;;;18.88;55.20
55460;BME280;41326;45.302;-122.946;2023-02-23T02:08:44;99416.86;;;18.81;55.40
55460;BME280;41326;45.302;-122.946;2023-02-23T02:11:13;99415.71;;;18.73;55.63
55460;BME280;41326;45.302;-122.946;2023-02-23T02:13:43;99415.05;;;18.65;55.77
55460;BME280;41326;45.302;-122.946;2023-02-23T02:16:26;99413.18;;;18.55;56.10
55460;BME280;41326;45.302;-122.946;2023-02-23T02:18:53;99408.40;;;18.51;56.01
55460;BME280;41326;45.302;-122.946;2023-02-23T02:26:21;99420.87;;;18.49;55.67
55460;BME280;41326;45.302;-122.946;2023-02-23T02:28:54;99427.71;;;18.67;55.13
55460;BME280;41326;45.302;-122.946;2023-02-23T02:31:24;99426.50;;;18.78;54.32
55460;BME280;41326;45.302;-122.946;2023-02-23T02:34:01;99426.49;;;18.84;54.25
55460;BME280;41326;45.302;-122.946;2023-02-23T02:38:53;99429.76;;;18.69;54.84
55460;BME280;41326;45.302;-122.946;2023-02-23T02:41:20;99436.27;;;18.71;54.72
55460;BME280;41326;45.302;-122.946;2023-02-23T02:43:53;99435.27;;;18.80;54.54
55460;BME280;41326;45.302;-122.946;2023-02-23T02:46:19;99437.21;;;18.95;53.76
55460;BME280;41326;45.302;-122.946;2023-02-23T02:48:53;99439.45;;;18.86;54.45
55460;BME280;41326;45.302;-122.946;2023-02-23T02:51:21;99438.27;;;18.78;55.04
55460;BME280;41326;45.302;-122.946;2023-02-23T02:53:54;99434.91;;;18.71;55.47
55460;BME280;41326;45.302;-122.946;2023-02-23T02:56:20;99435.79;;;18.65;55.86
55460;BME280;41326;45.302;-122.946;2023-02-23T02:58:47;99430.00;;;18.59;55.84
55460;BME280;41326;45.302;-122.946;2023-02-23T03:01:19;99429.41;;;18.56;55.46
55460;BME280;41326;45.302;-122.946;2023-02-23T03:03:49;99429.99;;;18.53;55.07
55460;BME280;41326;45.302;-122.946;2023-02-23T03:06:19;99432.42;;;18.63;54.81
55460;BME280;41326;45.302;-122.946;2023-02-23T03:08:53;99426.64;;;18.81;53.82
55460;BME280;41326;45.302;-122.946;2023-02-23T03:11:20;99426.17;;;18.94;53.30
55460;BME280;41326;45.302;-122.946;2023-02-23T03:13:58;99421.00;;;18.90;53.51
55460;BME280;41326;45.302;-122.946;2023-02-23T03:16:27;99417.42;;;18.75;53.79
55460;BME280;41326;45.302;-122.946;2023-02-23T03:19:04;99419.80;;;18.67;53.46
55460;BME280;41326;45.302;-122.946;2023-02-23T03:21:23;99420.22;;;18.78;53.35
55460;BME280;41326;45.302;-122.946;2023-02-23T03:23:58;99417.15;;;18.93;52.79
55460;BME280;41326;45.302;-122.946;2023-02-23T03:26:27;99415.55;;;19.10;52.43
55460;BME280;41326;45.302;-122.946;2023-02-23T03:28:58;99418.76;;;18.97;52.60
55460;BME280;41326;45.302;-122.946;2023-02-23T03:31:26;99417.80;;;18.80;52.82
55460;BME280;41326;45.302;-122.946;2023-02-23T03:33:59;99420.80;;;18.71;53.28
55460;BME280;41326;45.302;-122.946;2023-02-23T03:36:27;99419.51;;;18.78;52.53
55460;BME280;41326;45.302;-122.946;2023-02-23T03:38:57;99420.75;;;18.95;52.50
55460;BME280;41326;45.302;-122.946;2023-02-23T03:41:25;99418.75;;;19.12;52.14
55460;BME280;41326;45.302;-122.946;2023-02-23T03:43:59;99417.61;;;19.09;51.69
55460;BME280;41326;45.302;-122.946;2023-02-23T03:46:25;99423.36;;;18.91;52.48
55460;BME280;41326;45.302;-122.946;2023-02-23T03:48:56;99422.98;;;18.80;52.58
55460;BME280;41326;45.302;-122.946;2023-02-23T03:51:27;99423.88;;;18.79;52.45
55460;BME280;41326;45.302;-122.946;2023-02-23T03:53:59;99426.75;;;18.94;52.17
55460;BME280;41326;45.302;-122.946;2023-02-23T03:56:29;99424.23;;;19.07;51.72
55460;BME280;41326;45.302;-122.946;2023-02-23T03:58:58;99421.87;;;19.06;51.61
55460;BME280;41326;45.302;-122.946;2023-02-23T04:01:28;99426.61;;;18.98;51.83
55460;BME280;41326;45.302;-122.946;2023-02-23T04:03:57;99424.79;;;18.83;52.38
55460;BME280;41326;45.302;-122.946;2023-02-23T04:06:30;99426.99;;;18.76;52.43
55460;BME280;41326;45.302;-122.946;2023-02-23T04:09:00;99432.73;;;18.75;52.01
55460;BME280;41326;45.302;-122.946;2023-02-23T04:12:54;99434.85;;;18.96;51.54
55460;BME280;41326;45.302;-122.946;2023-02-23T04:15:24;99434.43;;;19.06;51.55
55460;BME280;41326;45.302;-122.946;2023-02-23T04:17:50;99434.02;;;18.93;52.19
55460;BME280;41326;45.302;-122.946;2023-02-23T04:20:20;99438.48;;;18.89;52.24
55460;BME280;41326;45.302;-122.946;2023-02-23T04:22:50;99439.70;;;18.83;52.33
55460;BME280;41326;45.302;-122.946;2023-02-23T04:25:21;99442.33;;;18.75;52.64
55460;BME280;41326;45.302;-122.946;2023-02-23T04:27:50;99445.61;;;18.64;53.02
55460;BME280;41326;45.302;-122.946;2023-02-23T04:30:21;99446.52;;;18.64;52.59
55460;BME280;41326;45.302;-122.946;2023-02-23T04:32:51;99451.46;;;18.72;52.82
55460;BME280;41326;45.302;-122.946;2023-02-23T04:35:22;99452.02;;;18.87;52.13
55460;BME280;41326;45.302;-122.946;2023-02-23T04:37:51;99455.44;;;18.93;52.20
55460;BME280;41326;45.302;-122.946;2023-02-23T04:40:22;99456.28;;;18.91;52.17
55460;BME280;41326;45.302;-122.946;2023-02-23T04:42:52;99459.27;;;18.83;52.39
55460;BME280;41326;45.302;-122.946;2023-02-23T04:45:23;99456.20;;;18.77;52.34
55460;BME280;41326;45.302;-122.946;2023-02-23T04:47:53;99461.00;;;18.75;52.63
55460;BME280;41326;45.302;-122.946;2023-02-23T04:50:24;99462.31;;;18.65;52.80
55460;BME280;41326;45.302;-122.946;2023-02-23T04:52:54;99460.23;;;18.68;52.81
55460;BME280;41326;45.302;-122.946;2023-02-23T04:55:25;99463.99;;;18.80;52.27
55460;BME280;41326;45.302;-122.946;2023-02-23T04:57:56;99464.74;;;18.83;52.45
55460;BME280;41326;45.302;-122.946;2023-02-23T05:00:25;99465.37;;;18.83;52.33
55460;BME280;41326;45.302;-122.946;2023-02-23T05:02:55;99464.80;;;18.81;52.29
55460;BME280;41326;45.302;-122.946;2023-02-23T05:05:26;99470.73;;;18.78;52.38
55460;BME280;41326;45.302;-122.946;2023-02-23T05:07:56;99468.49;;;18.73;52.47
55460;BME280;41326;45.302;-122.946;2023-02-23T05:10:26;99472.31;;;18.63;52.88
55460;BME280;41326;45.302;-122.946;2023-02-23T05:12:57;99473.20;;;18.57;53.08
55460;BME280;41326;45.302;-122.946;2023-02-23T05:15:27;99474.62;;;18.49;53.30
55460;BME280;41326;45.302;-122.946;2023-02-23T05:17:58;99473.60;;;18.41;53.40
55460;BME280;41326;45.302;-122.946;2023-02-23T05:20:28;99473.08;;;18.40;53.23
55460;BME280;41326;45.302;-122.946;2023-02-23T05:22:58;99475.08;;;18.37;53.29
55460;BME280;41326;45.302;-122.946;2023-02-23T05:25:28;99472.74;;;18.34;53.28
55460;BME280;41326;45.302;-122.946;2023-02-23T05:27:58;99471.49;;;18.30;53.31
55460;BME280;41326;45.302;-122.946;2023-02-23T05:30:29;99475.73;;;18.28;53.40
55460;BME280;41326;45.302;-122.946;2023-02-23T05:33:00;99475.87;;;18.21;53.60
55460;BME280;41326;45.302;-122.946;2023-02-23T05:35:30;99480.50;;;18.19;53.51
55460;BME280;41326;45.302;-122.946;2023-02-23T05:38:00;99478.39;;;18.17;53.53
55460;BME280;41326;45.302;-122.946;2023-02-23T05:40:30;99481.79;;;18.11;53.60
55460;BME280;41326;45.302;-122.946;2023-02-23T05:43:04;99482.09;;;18.14;53.37
55460;BME280;41326;45.302;-122.946;2023-02-23T05:45:32;99481.77;;;18.10;53.44
55460;BME280;41326;45.302;-122.946;2023-02-23T05:48:02;99482.50;;;18.10;53.36
55460;BME280;41326;45.302;-122.946;2023-02-23T05:50:33;99480.49;;;18.08;53.39
55460;BME280;41326;45.302;-122.946;2023-02-23T05:53:03;99481.43;;;18.02;53.49
55460;BME280;41326;45.302;-122.946;2023-02-23T05:55:34;99476.67;;;17.96;53.64
55460;BME280;41326;45.302;-122.946;2023-02-23T05:58:04;99471.28;;;17.92;53.73
55460;BME280;41326;45.302;-122.946;2023-02-23T06:00:34;99471.85;;;17.93;53.44
55460;BME280;41326;45.302;-122.946;2023-02-23T06:03:05;99475.29;;;17.89;53.56
55460;BME280;41326;45.302;-122.946;2023-02-23T06:05:35;99478.37;;;17.85;53.60
55460;BME280;41326;45.302;-122.946;2023-02-23T06:08:06;99477.01;;;17.78;53.86
55460;BME280;41326;45.302;-122.946;2023-02-23T06:10:36;99479.48;;;17.78;53.88
55460;BME280;41326;45.302;-122.946;2023-02-23T06:13:07;99479.81;;;17.75;53.86
55460;BME280;41326;45.302;-122.946;2023-02-23T06:15:36;99474.51;;;17.69;54.03
55460;BME280;41326;45.302;-122.946;2023-02-23T06:18:07;99474.43;;;17.70;53.89
55460;BME280;41326;45.302;-122.946;2023-02-23T06:20:37;99471.98;;;17.70;53.85
55460;BME280;41326;45.302;-122.946;2023-02-23T06:23:08;99471.72;;;17.69;53.77
55460;BME280;41326;45.302;-122.946;2023-02-23T06:25:38;99472.81;;;17.64;53.79
55460;BME280;41326;45.302;-122.946;2023-02-23T06:28:09;99473.34;;;17.59;53.98
55460;BME280;41326;45.302;-122.946;2023-02-23T06:30:40;99472.65;;;17.58;53.98
55460;BME280;41326;45.302;-122.946;2023-02-23T06:33:10;99469.34;;;17.55;54.12
55460;BME280;41326;45.302;-122.946;2023-02-23T06:35:40;99466.09;;;17.55;54.05
55460;BME280;41326;45.302;-122.946;2023-02-23T06:38:10;99465.54;;;17.54;53.85
55460;BME280;41326;45.302;-122.946;2023-02-23T06:40:40;99465.07;;;17.51;53.96
55460;BME280;41326;45.302;-122.946;2023-02-23T06:43:11;99467.70;;;17.49;53.98
55460;BME280;41326;45.302;-122.946;2023-02-23T06:45:42;99464.66;;;17.48;54.02
55460;BME280;41326;45.302;-122.946;2023-02-23T06:48:12;99461.74;;;17.47;53.89
55460;BME280;41326;45.302;-122.946;2023-02-23T06:50:41;99460.96;;;17.40;54.06
55460;BME280;41326;45.302;-122.946;2023-02-23T06:53:12;99455.01;;;17.35;54.15
55460;BME280;41326;45.302;-122.946;2023-02-23T06:55:42;99456.93;;;17.32;54.25
55460;BME280;41326;45.302;-122.946;2023-02-23T06:58:13;99459.25;;;17.30;54.25
55460;BME280;41326;45.302;-122.946;2023-02-23T07:00:44;99459.49;;;17.31;54.26
55460;BME280;41326;45.302;-122.946;2023-02-23T07:03:14;99455.63;;;17.35;54.06
55460;BME280;41326;45.302;-122.946;2023-02-23T07:05:44;99453.35;;;17.35;54.03
55460;BME280;41326;45.302;-122.946;2023-02-23T07:08:14;99456.73;;;17.31;54.20
55460;BME280;41326;45.302;-122.946;2023-02-23T07:10:45;99455.07;;;17.23;54.47
55460;BME280;41326;45.302;-122.946;2023-02-23T07:13:15;99454.96;;;17.21;54.59
55460;BME280;41326;45.302;-122.946;2023-02-23T07:15:46;99459.01;;;17.21;54.47
55460;BME280;41326;45.302;-122.946;2023-02-23T07:18:15;99456.71;;;17.17;54.68
55460;BME280;41326;45.302;-122.946;2023-02-23T07:20:46;99456.22;;;17.18;54.58
55460;BME280;41326;45.302;-122.946;2023-02-23T07:23:16;99454.42;;;17.17;54.62
55460;BME280;41326;45.302;-122.946;2023-02-23T07:25:48;99451.80;;;17.15;54.68
55460;BME280;41326;45.302;-122.946;2023-02-23T07:28:17;99448.06;;;17.13;54.67
55460;BME280;41326;45.302;-122.946;2023-02-23T07:30:47;99444.66;;;17.05;55.06
55460;BME280;41326;45.302;-122.946;2023-02-23T07:33:17;99444.58;;;17.04;55.09
55460;BME280;41326;45.302;-122.946;2023-02-23T07:35:48;99446.70;;;17.03;55.19
55460;BME280;41326;45.302;-122.946;2023-02-23T07:38:18;99450.06;;;17.03;55.13
55460;BME280;41326;45.302;-122.946;2023-02-23T07:40:49;99443.54;;;17.04;54.84
55460;BME280;41326;45.302;-122.946;2023-02-23T07:43:19;99444.89;;;16.99;55.16
55460;BME280;41326;45.302;-122.946;2023-02-23T07:45:49;99436.42;;;16.99;55.21
55460;BME280;41326;45.302;-122.946;2023-02-23T07:48:20;99432.46;;;16.95;55.32
55460;BME280;41326;45.302;-122.946;2023-02-23T07:50:50;99439.32;;;16.93;55.41
55460;BME280;41326;45.302;-122.946;2023-02-23T07:53:20;99436.79;;;16.91;55.38
55460;BME280;41326;45.302;-122.946;2023-02-23T07:55:54;99431.70;;;16.93;55.29
55460;BME280;41326;45.302;-122.946;2023-02-23T07:58:20;99434.28;;;16.88;55.38
55460;BME280;41326;45.302;-122.946;2023-02-23T08:00:50;99432.92;;;16.90;55.17
55460;BME280;41326;45.302;-122.946;2023-02-23T08:03:21;99432.59;;;16.93;55.06
55460;BME280;41326;45.302;-122.946;2023-02-23T08:05:52;99430.79;;;16.90;55.07
55460;BME280;41326;45.302;-122.946;2023-02-23T08:08:22;99437.67;;;16.88;55.26
55460;BME280;41326;45.302;-122.946;2023-02-23T08:13:22;99434.64;;;16.80;55.48
55460;BME280;41326;45.302;-122.946;2023-02-23T08:15:53;99430.83;;;16.79;55.44
55460;BME280;41326;45.302;-122.946;2023-02-23T08:18:23;99427.14;;;16.77;55.44
55460;BME280;41326;45.302;-122.946;2023-02-23T08:20:56;99417.99;;;16.78;55.27
55460;BME280;41326;45.302;-122.946;2023-02-23T08:23:23;99429.92;;;16.76;55.28
55460;BME280;41326;45.302;-122.946;2023-02-23T08:25:54;99431.81;;;16.73;55.40
55460;BME280;41326;45.302;-122.946;2023-02-23T08:28:24;99431.29;;;16.70;55.42
55460;BME280;41326;45.302;-122.946;2023-02-23T08:30:55;99432.45;;;16.68;55.48
55460;BME280;41326;45.302;-122.946;2023-02-23T08:33:25;99434.09;;;16.66;55.53
55460;BME280;41326;45.302;-122.946;2023-02-23T08:35:57;99432.70;;;16.67;55.50
55460;BME280;41326;45.302;-122.946;2023-02-23T08:38:25;99436.48;;;16.64;55.36
55460;BME280;41326;45.302;-122.946;2023-02-23T08:40:59;99440.21;;;16.63;55.35
55460;BME280;41326;45.302;-122.946;2023-02-23T08:43:26;99440.11;;;16.61;55.45
55460;BME280;41326;45.302;-122.946;2023-02-23T08:45:56;99446.34;;;16.61;55.35
55460;BME280;41326;45.302;-122.946;2023-02-23T08:48:26;99445.41;;;16.57;55.54
55460;BME280;41326;45.302;-122.946;2023-02-23T08:51:00;99447.56;;;16.60;55.42
55460;BME280;41326;45.302;-122.946;2023-02-23T08:53:27;99447.29;;;16.53;55.52
55460;BME280;41326;45.302;-122.946;2023-02-23T08:56:01;99448.29;;;16.53;55.46
55460;BME280;41326;45.302;-122.946;2023-02-23T08:58:28;99448.34;;;16.51;55.43
55460;BME280;41326;45.302;-122.946;2023-02-23T09:00:58;99447.47;;;16.51;55.31
55460;BME280;41326;45.302;-122.946;2023-02-23T09:03:30;99450.29;;;16.49;55.32
55460;BME280;41326;45.302;-122.946;2023-02-23T09:06:04;99451.16;;;16.43;55.51
55460;BME280;41326;45.302;-122.946;2023-02-23T09:08:29;99455.98;;;16.41;55.49
55460;BME280;41326;45.302;-122.946;2023-02-23T09:10:59;99455.98;;;16.40;55.54
55460;BME280;41326;45.302;-122.946;2023-02-23T09:13:30;99459.22;;;16.37;55.56
55460;BME280;41326;45.302;-122.946;2023-02-23T09:15:59;99458.20;;;16.32;55.64
55460;BME280;41326;45.302;-122.946;2023-02-23T09:18:29;99462.71;;;16.35;55.45
55460;BME280;41326;45.302;-122.946;2023-02-23T09:21:01;99467.40;;;16.35;55.31
55460;BME280;41326;45.302;-122.946;2023-02-23T09:23:33;99466.38;;;16.35;55.20
55460;BME280;41326;45.302;-122.946;2023-02-23T09:26:02;99467.09;;;16.33;55.25
55460;BME280;41326;45.302;-122.946;2023-02-23T09:28:32;99472.34;;;16.29;55.34
55460;BME280;41326;45.302;-122.946;2023-02-23T09:31:05;99469.51;;;16.23;55.48
55460;BME280;41326;45.302;-122.946;2023-02-23T09:33:33;99475.55;;;16.21;55.48
55460;BME280;41326;45.302;-122.946;2023-02-23T09:36:05;99478.47;;;16.19;55.50
55460;BME280;41326;45.302;-122.946;2023-02-23T09:38:33;99478.78;;;16.19;55.36
55460;BME280;41326;45.302;-122.946;2023-02-23T09:41:04;99478.13;;;16.20;55.19
55460;BME280;41326;45.302;-122.946;2023-02-23T09:43:38;99478.09;;;16.15;55.30
55460;BME280;41326;45.302;-122.946;2023-02-23T09:46:25;99477.07;;;16.10;55.44
55460;BME280;41326;45.302;-122.946;2023-02-23T09:48:35;99470.99;;;16.08;55.48
55460;BME280;41326;45.302;-122.946;2023-02-23T09:51:07;99472.57;;;16.08;55.39
55460;BME280;41326;45.302;-122.946;2023-02-23T09:53:41;99469.61;;;16.04;55.42
55460;BME280;41326;45.302;-122.946;2023-02-23T09:56:10;99471.58;;;16.01;55.53
55460;BME280;41326;45.302;-122.946;2023-02-23T09:58:38;99471.19;;;16.01;55.42
55460;BME280;41326;45.302;-122.946;2023-02-23T10:03:39;99472.08;;;16.00;55.50
55460;BME280;41326;45.302;-122.946;2023-02-23T10:06:09;99472.30;;;15.96;55.59
55460;BME280;41326;45.302;-122.946;2023-02-23T10:08:50;99473.43;;;15.93;55.66
55460;BME280;41326;45.302;-122.946;2023-02-23T10:11:17;99474.82;;;15.89;55.76
55460;BME280;41326;45.302;-122.946;2023-02-23T10:13:43;99469.23;;;15.88;55.66
55460;BME280;41326;45.302;-122.946;2023-02-23T10:16:14;99470.06;;;15.91;55.57
55460;BME280;41326;45.302;-122.946;2023-02-23T10:18:44;99469.60;;;15.92;55.42
55460;BME280;41326;45.302;-122.946;2023-02-23T10:21:11;99473.13;;;15.86;55.59
55460;BME280;41326;45.302;-122.946;2023-02-23T10:23:42;99471.81;;;15.88;55.52
55460;BME280;41326;45.302;-122.946;2023-02-23T10:26:11;99471.76;;;15.86;55.56
55460;BME280;41326;45.302;-122.946;2023-02-23T10:28:39;99468.73;;;15.83;55.64
55460;BME280;41326;45.302;-122.946;2023-02-23T10:31:18;99473.96;;;15.82;55.60
55460;BME280;41326;45.302;-122.946;2023-02-23T10:33:42;99470.10;;;15.77;55.74
55460;BME280;41326;45.302;-122.946;2023-02-23T10:36:16;99473.09;;;15.75;55.74
55460;BME280;41326;45.302;-122.946;2023-02-23T10:38:40;99468.11;;;15.75;55.58
55460;BME280;41326;45.302;-122.946;2023-02-23T10:41:10;99469.44;;;15.73;55.52
55460;BME280;41326;45.302;-122.946;2023-02-23T10:43:40;99474.37;;;15.74;55.59
55460;BME280;41326;45.302;-122.946;2023-02-23T10:46:11;99473.07;;;15.71;55.62
55460;BME280;41326;45.302;-122.946;2023-02-23T10:48:42;99477.16;;;15.72;55.55
55460;BME280;41326;45.302;-122.946;2023-02-23T10:51:13;99472.77;;;15.68;55.58
55460;BME280;41326;45.302;-122.946;2023-02-23T10:53:42;99472.81;;;15.65;55.66
55460;BME280;41326;45.302;-122.946;2023-02-23T10:56:14;99473.70;;;15.61;55.73
55460;BME280;41326;45.302;-122.946;2023-02-23T10:58:47;99474.98;;;15.64;55.56
55460;BME280;41326;45.302;-122.946;2023-02-23T11:01:14;99470.05;;;15.64;55.42
55460;BME280;41326;45.302;-122.946;2023-02-23T11:03:45;99473.93;;;15.61;55.46
55460;BME280;41326;45.302;-122.946;2023-02-23T11:06:27;99475.29;;;15.63;55.39
55460;BME280;41326;45.302;-122.946;2023-02-23T11:08:44;99477.16;;;15.59;55.44
55460;BME280;41326;45.302;-122.946;2023-02-23T11:11:21;99475.34;;;15.56;55.51
55460;BME280;41326;45.302;-122.946;2023-02-23T11:13:45;99478.94;;;15.50;55.66
55460;BME280;41326;45.302;-122.946;2023-02-23T11:16:17;99477.55;;;15.46;55.70
55460;BME280;41326;45.302;-122.946;2023-02-23T11:18:49;99474.73;;;15.43;55.78
55460;BME280;41326;45.302;-122.946;2023-02-23T11:21:20;99479.81;;;15.46;55.70
55460;BME280;41326;45.302;-122.946;2023-02-23T11:23:47;99482.05;;;15.49;55.70
55460;BME280;41326;45.302;-122.946;2023-02-23T11:26:23;99481.18;;;15.47;55.66
55460;BME280;41326;45.302;-122.946;2023-02-23T11:28:49;99482.26;;;15.43;55.78
55460;BME280;41326;45.302;-122.946;2023-02-23T11:31:21;99483.39;;;15.39;55.85
55460;BME280;41326;45.302;-122.946;2023-02-23T11:33:48;99483.84;;;15.39;55.83
55460;BME280;41326;45.302;-122.946;2023-02-23T11:36:24;99488.35;;;15.36;55.90
55460;BME280;41326;45.302;-122.946;2023-02-23T11:38:52;99485.42;;;15.33;55.89
55460;BME280;41326;45.302;-122.946;2023-02-23T11:41:24;99484.24;;;15.38;55.83
55460;BME280;41326;45.302;-122.946;2023-02-23T11:43:56;99476.89;;;15.32;56.18
55460;BME280;41326;45.302;-122.946;2023-02-23T11:46:20;99486.18;;;15.34;56.06
55460;BME280;41326;45.302;-122.946;2023-02-23T11:48:55;99487.06;;;15.29;56.13
55460;BME280;41326;45.302;-122.946;2023-02-23T11:51:25;99484.04;;;15.33;55.98
55460;BME280;41326;45.302;-122.946;2023-02-23T11:53:51;99485.63;;;15.32;55.90
55460;BME280;41326;45.302;-122.946;2023-02-23T11:56:24;99491.14;;;15.28;56.02
55460;BME280;41326;45.302;-122.946;2023-02-23T11:58:54;99487.03;;;15.26;55.96
55460;BME280;41326;45.302;-122.946;2023-02-23T12:03:55;99485.22;;;15.25;56.12
55460;BME280;41326;45.302;-122.946;2023-02-23T12:06:31;99484.92;;;15.25;56.06
55460;BME280;41326;45.302;-122.946;2023-02-23T12:08:57;99485.89;;;15.21;56.15
55460;BME280;41326;45.302;-122.946;2023-02-23T12:11:30;99486.77;;;15.21;56.14
55460;BME280;41326;45.302;-122.946;2023-02-23T12:13:59;99489.91;;;15.19;56.17
55460;BME280;41326;45.302;-122.946;2023-02-23T12:16:28;99490.87;;;15.16;56.28
55460;BME280;41326;45.302;-122.946;2023-02-23T12:18:59;99490.03;;;15.13;56.30
55460;BME280;41326;45.302;-122.946;2023-02-23T12:21:33;99488.80;;;15.15;56.38
55460;BME280;41326;45.302;-122.946;2023-02-23T12:24:03;99485.34;;;15.11;56.74
55460;BME280;41326;45.302;-122.946;2023-02-23T12:26:27;99488.02;;;15.11;56.73
55460;BME280;41326;45.302;-122.946;2023-02-23T12:29:03;99487.78;;;15.12;56.52
55460;BME280;41326;45.302;-122.946;2023-02-23T12:31:33;99489.43;;;15.09;56.56
55460;BME280;41326;45.302;-122.946;2023-02-23T12:34:01;99495.04;;;15.04;56.73
55460;BME280;41326;45.302;-122.946;2023-02-23T12:36:34;99493.41;;;14.99;56.86
55460;BME280;41326;45.302;-122.946;2023-02-23T12:39:02;99493.99;;;15.00;56.89
55460;BME280;41326;45.302;-122.946;2023-02-23T12:42:43;99494.75;;;15.01;56.96
55460;BME280;41326;45.302;-122.946;2023-02-23T12:45:12;99497.05;;;15.02;56.95
55460;BME280;41326;45.302;-122.946;2023-02-23T12:47:39;99495.75;;;14.99;57.02
55460;BME280;41326;45.302;-122.946;2023-02-23T12:50:10;99492.45;;;14.99;56.94
55460;BME280;41326;45.302;-122.946;2023-02-23T12:52:41;99497.87;;;14.95;57.10
55460;BME280;41326;45.302;-122.946;2023-02-23T12:55:08;99499.43;;;14.91;57.17
55460;BME280;41326;45.302;-122.946;2023-02-23T12:57:43;99501.37;;;14.91;57.03
55460;BME280;41326;45.302;-122.946;2023-02-23T13:02:44;99506.78;;;14.92;57.24
55460;BME280;41326;45.302;-122.946;2023-02-23T13:05:19;99510.20;;;14.94;57.19
55460;BME280;41326;45.302;-122.946;2023-02-23T13:07:46;99512.09;;;14.91;57.19
55460;BME280;41326;45.302;-122.946;2023-02-23T13:10:20;99513.16;;;14.92;57.09